createdAt,value
2023-01-19T00:02:01.471Z,-2.72
2023-01-19T00:04:33.244Z,-2.76
2023-01-19T00:07:05.245Z,-2.77
2023-01-19T00:09:38.616Z,-2.83
2023-01-19T00:12:10.123Z,-2.83
2023-01-19T00:14:42.117Z,-2.87
2023-01-19T00:17:13.626Z,-2.88
2023-01-19T00:19:45.308Z,-2.86
2023-01-19T00:22:16.774Z,-2.86
2023-01-19T00:24:48.718Z,-2.89
2023-01-19T00:27:20.237Z,-2.93
2023-01-19T00:29:52.084Z,-2.94
2023-01-19T00:32:23.594Z,-2.96
2023-01-19T00:34:55.444Z,-2.99
2023-01-19T00:37:26.956Z,-2.96
2023-01-19T00:39:58.449Z,-2.96
2023-01-19T00:42:44.204Z,-2.96
2023-01-19T00:45:16.211Z,-3.00
2023-01-19T00:47:47.879Z,-2.99
2023-01-19T00:50:19.931Z,-2.99
2023-01-19T00:52:51.939Z,-3.02
2023-01-19T00:55:23.777Z,-3.03
2023-01-19T00:57:55.328Z,-3.10
2023-01-19T01:00:27.242Z,-3.12
2023-01-19T01:02:59.366Z,-3.15
2023-01-19T01:05:31.589Z,-3.19
2023-01-19T01:08:03.084Z,-3.25
2023-01-19T01:10:34.970Z,-3.28
2023-01-19T01:13:22.008Z,-3.28
2023-01-19T01:15:55.777Z,-3.29
2023-01-19T01:18:27.310Z,-3.29
2023-01-19T01:20:59.106Z,-3.31
2023-01-19T01:23:30.623Z,-3.32
2023-01-19T01:26:02.425Z,-3.35
2023-01-19T01:28:33.961Z,-3.37
2023-01-19T01:31:05.857Z,-3.36
2023-01-19T01:33:40.653Z,-3.40
2023-01-19T01:36:13.425Z,-3.38
2023-01-19T01:38:44.902Z,-3.32
2023-01-19T01:41:16.749Z,-3.33
2023-01-19T01:43:48.332Z,-3.32
2023-01-19T01:46:20.266Z,-3.35
2023-01-19T01:48:51.759Z,-3.35
2023-01-19T01:51:26.716Z,-3.35
2023-01-19T01:53:58.199Z,-3.35
2023-01-19T01:56:30.112Z,-3.36
2023-01-19T01:59:01.626Z,-3.36
2023-01-19T02:01:52.513Z,-3.34
2023-01-19T02:04:24.116Z,-3.39
2023-01-19T02:07:14.985Z,-3.40
2023-01-19T02:10:05.245Z,-3.49
2023-01-19T02:12:55.396Z,-3.55
2023-01-19T02:15:27.143Z,-3.54
2023-01-19T02:17:58.636Z,-3.58
2023-01-19T02:20:30.125Z,-3.60
2023-01-19T02:23:02.105Z,-3.64
2023-01-19T02:25:34.252Z,-3.66
2023-01-19T02:28:05.739Z,-3.71
2023-01-19T02:30:37.522Z,-3.74
2023-01-19T02:33:09.136Z,-3.77
2023-01-19T02:35:41.037Z,-3.78
2023-01-19T02:38:12.611Z,-3.79
2023-01-19T02:40:44.670Z,-3.78
2023-01-19T02:43:16.370Z,-3.79
2023-01-19T02:45:48.562Z,-3.75
2023-01-19T02:48:20.119Z,-3.77
2023-01-19T02:50:51.697Z,-3.82
2023-01-19T02:53:23.228Z,-3.83
2023-01-19T02:55:54.780Z,-3.81
2023-01-19T02:58:26.294Z,-3.84
2023-01-19T03:00:58.182Z,-3.91
2023-01-19T03:03:30.632Z,-3.92
2023-01-19T03:06:02.460Z,-3.96
2023-01-19T03:08:34.239Z,-3.98
2023-01-19T03:11:06.208Z,-3.95
2023-01-19T03:13:37.725Z,-3.98
2023-01-19T03:16:09.782Z,-3.97
2023-01-19T03:18:42.809Z,-3.94
2023-01-19T03:21:14.667Z,-3.92
2023-01-19T03:23:46.194Z,-3.91
2023-01-19T03:26:17.743Z,-3.89
2023-01-19T03:28:49.265Z,-3.98
2023-01-19T03:31:21.518Z,-3.95
2023-01-19T03:33:53.061Z,-4.02
2023-01-19T03:36:24.979Z,-4.01
2023-01-19T03:38:57.403Z,-4.00
2023-01-19T03:41:29.419Z,-4.06
2023-01-19T03:44:00.982Z,-4.10
2023-01-19T03:46:32.978Z,-4.11
2023-01-19T03:49:04.538Z,-4.14
2023-01-19T03:51:36.400Z,-4.18
2023-01-19T03:54:07.944Z,-4.19
2023-01-19T03:56:39.751Z,-4.16
2023-01-19T03:59:11.277Z,-4.20
2023-01-19T04:01:43.232Z,-4.22
2023-01-19T04:04:15.563Z,-4.23
2023-01-19T04:06:47.470Z,-4.24
2023-01-19T04:09:20.088Z,-4.22
2023-01-19T04:11:52.060Z,-4.25
2023-01-19T04:14:23.611Z,-4.23
2023-01-19T04:16:55.199Z,-4.53
2023-01-19T04:19:27.153Z,-4.27
2023-01-19T04:21:58.999Z,-4.27
2023-01-19T04:24:30.818Z,-4.33
2023-01-19T04:27:02.359Z,-4.34
2023-01-19T04:29:33.959Z,-4.40
2023-01-19T04:32:05.853Z,-4.39
2023-01-19T04:34:37.356Z,-4.40
2023-01-19T04:37:08.916Z,-4.43
2023-01-19T04:39:40.483Z,-4.45
2023-01-19T04:42:12.494Z,-4.50
2023-01-19T04:44:44.025Z,-4.53
2023-01-19T04:47:15.841Z,-4.53
2023-01-19T04:49:47.351Z,-4.55
2023-01-19T04:52:19.344Z,-4.52
2023-01-19T04:54:50.865Z,-4.53
2023-01-19T04:57:22.695Z,-4.57
2023-01-19T04:59:54.392Z,-5.88
2023-01-19T05:02:26.271Z,-4.52
2023-01-19T05:04:57.820Z,-4.54
2023-01-19T05:07:29.684Z,-4.54
2023-01-19T05:10:01.404Z,-4.56
2023-01-19T05:12:33.405Z,-4.58
2023-01-19T05:15:04.924Z,-4.57
2023-01-19T05:17:36.748Z,-4.57
2023-01-19T05:20:08.323Z,-4.55
2023-01-19T05:22:40.255Z,-4.51
2023-01-19T05:25:11.799Z,-4.50
2023-01-19T05:27:43.822Z,-4.49
2023-01-19T05:30:15.437Z,-4.54
2023-01-19T05:32:47.481Z,-4.52
2023-01-19T05:35:27.828Z,-4.54
2023-01-19T05:38:03.454Z,-4.53
2023-01-19T05:40:35.066Z,-4.56
2023-01-19T05:43:07.083Z,-4.58
2023-01-19T05:45:41.765Z,-4.60
2023-01-19T05:48:13.760Z,-4.56
2023-01-19T05:50:45.284Z,-4.56
2023-01-19T05:53:17.313Z,-4.56
2023-01-19T05:55:48.873Z,-4.55
2023-01-19T05:58:20.794Z,-4.59
2023-01-19T06:00:52.390Z,-4.55
2023-01-19T06:03:24.538Z,-4.50
2023-01-19T06:05:56.339Z,-4.48
2023-01-19T06:08:28.348Z,-4.45
2023-01-19T06:11:00.241Z,-4.46
2023-01-19T06:13:32.020Z,-4.47
2023-01-19T06:16:03.628Z,-4.51
2023-01-19T06:18:35.535Z,-4.55
2023-01-19T06:21:07.401Z,-4.59
2023-01-19T06:23:39.311Z,-4.58
2023-01-19T06:26:10.901Z,-4.59
2023-01-19T06:28:42.780Z,-4.62
2023-01-19T06:31:14.412Z,-4.67
2023-01-19T06:33:46.024Z,-4.65
2023-01-19T06:36:17.578Z,-4.64
2023-01-19T06:38:49.469Z,-4.68
2023-01-19T06:41:20.968Z,-4.72
2023-01-19T06:43:52.858Z,-4.71
2023-01-19T06:46:24.461Z,-4.73
2023-01-19T06:48:56.344Z,-4.72
2023-01-19T06:51:27.956Z,-4.69
2023-01-19T06:53:59.922Z,-4.72
2023-01-19T06:56:31.468Z,-4.74
2023-01-19T06:59:03.334Z,-4.69
2023-01-19T07:01:35.057Z,-4.69
2023-01-19T07:04:06.884Z,-4.69
2023-01-19T07:06:38.644Z,-4.64
2023-01-19T07:09:14.586Z,-4.63
2023-01-19T07:11:47.308Z,-4.60
2023-01-19T07:14:19.592Z,-4.57
2023-01-19T07:16:51.278Z,-4.55
2023-01-19T07:19:23.026Z,-4.54
2023-01-19T07:21:54.549Z,-4.44
2023-01-19T07:24:26.445Z,-4.43
2023-01-19T07:26:58.549Z,-4.34
2023-01-19T07:29:30.528Z,-4.35
2023-01-19T07:32:02.049Z,-4.36
2023-01-19T07:34:34.760Z,-4.31
2023-01-19T07:37:06.293Z,-4.32
2023-01-19T07:39:38.227Z,-4.36
2023-01-19T07:42:09.771Z,-4.31
2023-01-19T07:44:41.646Z,-4.26
2023-01-19T07:47:13.195Z,-4.29
2023-01-19T07:49:45.211Z,-4.20
2023-01-19T07:52:16.730Z,-4.19
2023-01-19T07:54:51.180Z,-4.05
2023-01-19T07:57:23.362Z,-4.02
2023-01-19T07:59:54.940Z,-3.99
2023-01-19T08:02:26.941Z,-3.88
2023-01-19T08:04:58.615Z,-3.82
2023-01-19T08:07:30.768Z,-3.72
2023-01-19T08:10:02.323Z,-3.67
2023-01-19T08:12:34.209Z,-3.66
2023-01-19T08:15:05.745Z,-3.71
2023-01-19T08:17:37.627Z,-3.53
2023-01-19T08:20:09.434Z,-3.48
2023-01-19T08:22:41.350Z,-3.34
2023-01-19T08:25:12.884Z,-3.32
2023-01-19T08:27:45.271Z,-3.41
2023-01-19T08:30:16.808Z,-3.36
2023-01-19T08:32:59.550Z,-3.39
2023-01-19T08:35:31.337Z,-3.16
2023-01-19T08:38:03.315Z,-3.23
2023-01-19T08:40:34.914Z,-3.21
2023-01-19T08:43:09.693Z,-3.10
2023-01-19T08:45:46.539Z,-3.13
2023-01-19T08:48:18.448Z,-3.10
2023-01-19T08:50:50.044Z,-2.83
2023-01-19T08:53:23.852Z,-2.81
2023-01-19T08:55:57.333Z,-2.80
2023-01-19T08:58:29.147Z,-2.67
2023-01-19T09:01:02.600Z,-2.53
2023-01-19T09:03:35.125Z,-2.60
2023-01-19T09:06:06.931Z,-2.59
2023-01-19T09:08:38.544Z,-2.45
2023-01-19T09:11:11.272Z,-2.24
2023-01-19T09:13:43.134Z,-2.36
2023-01-19T09:16:15.901Z,-2.40
2023-01-19T09:18:47.502Z,-2.19
2023-01-19T09:21:19.237Z,-2.01
2023-01-19T09:23:51.190Z,-1.62
2023-01-19T09:26:23.685Z,-1.51
2023-01-19T09:28:55.307Z,-1.39
2023-01-19T09:31:26.936Z,-1.19
2023-01-19T09:33:58.837Z,-1.06
2023-01-19T09:36:30.957Z,-0.93
2023-01-19T09:39:03.280Z,-0.57
2023-01-19T09:41:34.803Z,-0.53
2023-01-19T09:44:06.687Z,-0.43
2023-01-19T09:46:39.043Z,-0.32
2023-01-19T09:49:11.009Z,-0.60
2023-01-19T09:51:42.678Z,0.11
2023-01-19T09:54:14.985Z,0.32
2023-01-19T09:56:46.527Z,0.24
2023-01-19T09:59:18.484Z,0.60
2023-01-19T10:01:50.113Z,0.97
2023-01-19T10:04:21.986Z,0.91
2023-01-19T10:06:53.539Z,0.81
2023-01-19T10:09:25.279Z,1.00
2023-01-19T10:11:56.814Z,1.10
2023-01-19T10:14:28.677Z,1.53
2023-01-19T10:17:00.231Z,0.69
2023-01-19T10:19:32.741Z,0.92
2023-01-19T10:22:04.246Z,0.84
2023-01-19T10:24:36.097Z,0.55
2023-01-19T10:27:07.613Z,0.49
2023-01-19T10:29:39.517Z,0.88
2023-01-19T10:32:11.134Z,1.45
2023-01-19T10:34:42.983Z,1.25
2023-01-19T10:37:14.524Z,1.12
2023-01-19T10:39:46.499Z,1.16
2023-01-19T10:42:18.052Z,0.88
2023-01-19T10:44:49.901Z,1.00
2023-01-19T10:47:21.647Z,1.22
2023-01-19T10:49:53.604Z,1.76
2023-01-19T10:52:25.211Z,1.49
2023-01-19T10:54:57.130Z,1.29
2023-01-19T10:57:28.624Z,1.97
2023-01-19T11:00:00.665Z,1.38
2023-01-19T11:02:32.413Z,1.24
2023-01-19T11:05:04.385Z,1.46
2023-01-19T11:07:36.081Z,1.37
2023-01-19T11:10:07.908Z,1.06
2023-01-19T11:12:39.411Z,1.40
2023-01-19T11:15:11.461Z,1.34
2023-01-19T11:17:43.013Z,1.56
2023-01-19T11:20:14.591Z,1.54
2023-01-19T11:22:48.090Z,2.07
2023-01-19T11:25:20.664Z,1.87
2023-01-19T11:27:52.208Z,1.94
2023-01-19T11:30:24.042Z,2.04
2023-01-19T11:32:56.341Z,1.94
2023-01-19T11:35:28.247Z,1.96
2023-01-19T11:37:59.749Z,1.41
2023-01-19T11:40:31.627Z,1.43
2023-01-19T11:43:03.477Z,1.59
2023-01-19T11:45:35.269Z,1.64
2023-01-19T11:48:06.844Z,1.76
2023-01-19T11:50:38.625Z,1.97
2023-01-19T11:53:10.143Z,1.85
2023-01-19T11:55:42.026Z,1.82
2023-01-19T11:58:13.545Z,1.74
2023-01-19T12:00:45.377Z,1.96
2023-01-19T12:03:16.913Z,2.18
2023-01-19T12:05:48.757Z,2.46
2023-01-19T12:08:20.277Z,2.41
2023-01-19T12:10:51.961Z,2.75
2023-01-19T12:13:23.513Z,2.51
2023-01-19T12:15:55.338Z,2.38
2023-01-19T12:18:26.854Z,2.49
2023-01-19T12:20:59.203Z,2.40
2023-01-19T12:23:31.095Z,2.55
2023-01-19T12:26:03.011Z,2.50
2023-01-19T12:28:34.519Z,2.23
2023-01-19T12:31:06.639Z,2.18
2023-01-19T12:33:38.408Z,2.54
2023-01-19T12:36:10.176Z,2.33
2023-01-19T12:38:41.786Z,1.99
2023-01-19T12:41:13.645Z,2.40
2023-01-19T12:43:45.190Z,2.03
2023-01-19T12:46:17.023Z,2.16
2023-01-19T12:48:48.925Z,2.00
2023-01-19T12:51:20.465Z,2.00
2023-01-19T12:53:53.335Z,2.05
2023-01-19T12:56:24.856Z,2.09
2023-01-19T12:58:56.740Z,2.30
2023-01-19T13:01:28.436Z,2.38
2023-01-19T13:04:00.606Z,2.03
2023-01-19T13:06:32.142Z,2.00
2023-01-19T13:09:04.047Z,2.00
2023-01-19T13:11:35.545Z,2.03
2023-01-19T13:14:07.463Z,2.03
2023-01-19T13:16:38.982Z,1.90
2023-01-19T13:19:12.808Z,1.72
2023-01-19T13:21:44.775Z,1.87
2023-01-19T13:24:16.900Z,2.14
2023-01-19T13:26:48.409Z,1.85
2023-01-19T13:29:20.256Z,1.80
2023-01-19T13:32:02.249Z,1.75
2023-01-19T13:34:34.280Z,1.63
2023-01-19T13:37:06.207Z,1.83
2023-01-19T13:39:38.066Z,1.84
2023-01-19T13:42:09.622Z,2.01
2023-01-19T13:44:41.793Z,1.82
2023-01-19T13:47:13.381Z,1.91
2023-01-19T13:49:45.166Z,1.88
2023-01-19T13:52:19.803Z,1.85
2023-01-19T13:54:51.709Z,1.76
2023-01-19T13:57:24.141Z,1.63
2023-01-19T13:59:56.003Z,1.59
2023-01-19T14:02:27.606Z,1.45
2023-01-19T14:04:59.695Z,1.45
2023-01-19T14:07:31.321Z,1.45
2023-01-19T14:10:03.151Z,1.69
2023-01-19T14:12:37.201Z,1.60
2023-01-19T14:15:14.271Z,1.41
2023-01-19T14:17:49.877Z,1.47
2023-01-19T14:20:21.576Z,1.40
2023-01-19T14:22:53.084Z,1.47
2023-01-19T14:25:24.944Z,1.41
2023-01-19T14:27:56.468Z,1.46
2023-01-19T14:30:28.329Z,1.12
2023-01-19T14:32:59.838Z,0.94
2023-01-19T14:35:31.736Z,0.72
2023-01-19T14:38:04.691Z,0.56
2023-01-19T14:40:36.625Z,0.38
2023-01-19T14:43:08.270Z,0.32
2023-01-19T14:45:41.659Z,0.19
2023-01-19T14:48:13.338Z,0.20
2023-01-19T14:50:57.651Z,0.18
2023-01-19T14:53:33.880Z,0.14
2023-01-19T14:56:05.652Z,0.08
2023-01-19T14:58:37.566Z,0.04
2023-01-19T15:01:09.542Z,0.06
2023-01-19T15:03:45.672Z,0.01
2023-01-19T15:06:38.889Z,-0.02
2023-01-19T15:09:10.425Z,-0.04
2023-01-19T15:14:31.523Z,0.03
2023-01-19T15:17:03.086Z,0.04
2023-01-19T15:19:34.984Z,-0.04
2023-01-19T15:22:06.497Z,0.00
2023-01-19T15:24:40.099Z,-0.02
2023-01-19T15:27:11.715Z,-0.01
2023-01-19T15:29:43.615Z,-0.04
2023-01-19T15:32:15.173Z,0.03
2023-01-19T15:34:47.037Z,0.07
2023-01-19T15:37:18.564Z,0.03
2023-01-19T15:39:50.367Z,0.04
2023-01-19T15:42:21.888Z,0.12
2023-01-19T15:44:53.813Z,0.03
2023-01-19T15:47:25.351Z,0.04
2023-01-19T15:49:57.257Z,0.07
2023-01-19T15:52:28.778Z,0.09
2023-01-19T15:55:00.661Z,0.04
2023-01-19T15:57:34.640Z,0.06
2023-01-19T16:00:06.778Z,0.14
2023-01-19T16:02:38.341Z,0.10
2023-01-19T16:05:10.414Z,-0.01
2023-01-19T16:07:42.123Z,-0.02
2023-01-19T16:10:14.037Z,-0.02
2023-01-19T16:12:45.627Z,-0.06
2023-01-19T16:15:17.306Z,-0.16
2023-01-19T16:17:48.808Z,-0.22
2023-01-19T16:20:20.431Z,-0.22
2023-01-19T16:22:51.948Z,-0.25
2023-01-19T16:25:24.176Z,-0.28
2023-01-19T16:27:56.923Z,-0.27
2023-01-19T16:30:28.788Z,-0.25
2023-01-19T16:33:00.369Z,-0.25
2023-01-19T16:35:32.255Z,-0.23
2023-01-19T16:38:04.026Z,-0.24
2023-01-19T16:40:35.909Z,-0.17
2023-01-19T16:43:07.411Z,-0.20
2023-01-19T16:45:39.324Z,-0.21
2023-01-19T16:48:10.862Z,-0.23
2023-01-19T16:50:42.817Z,-0.21
2023-01-19T16:53:14.326Z,-0.21
2023-01-19T16:55:47.693Z,-0.13
2023-01-19T16:58:19.211Z,-0.17
2023-01-19T17:00:51.132Z,-0.12
2023-01-19T17:03:22.733Z,-0.11
2023-01-19T17:05:54.605Z,-0.10
2023-01-19T17:08:26.107Z,-0.08
2023-01-19T17:10:58.113Z,-0.08
2023-01-19T17:13:30.056Z,-0.05
2023-01-19T17:16:01.984Z,-0.07
2023-01-19T17:18:33.547Z,-0.02
2023-01-19T17:21:05.390Z,0.00
2023-01-19T17:23:37.454Z,0.02
2023-01-19T17:26:09.283Z,0.02
2023-01-19T17:28:40.832Z,-0.02
2023-01-19T17:31:12.849Z,0.03
2023-01-19T17:33:44.463Z,0.12
2023-01-19T17:36:16.368Z,0.12
2023-01-19T17:38:48.014Z,0.16
2023-01-19T17:41:19.851Z,0.11
2023-01-19T17:43:51.595Z,0.08
2023-01-19T17:46:23.486Z,-1.12
2023-01-19T17:48:55.082Z,0.10
2023-01-19T17:51:27.254Z,0.12
2023-01-19T17:53:58.854Z,0.09
2023-01-19T17:56:30.581Z,0.10
2023-01-19T17:59:02.128Z,0.08
2023-01-19T18:01:34.177Z,0.07
2023-01-19T18:04:05.715Z,0.08
2023-01-19T18:06:37.392Z,0.13
2023-01-19T18:09:14.748Z,0.16
2023-01-19T18:11:46.682Z,0.10
2023-01-19T18:14:18.278Z,0.09
2023-01-19T18:16:50.196Z,0.05
2023-01-19T18:19:22.511Z,-0.05
2023-01-19T18:21:54.489Z,0.05
2023-01-19T18:24:26.127Z,0.08
2023-01-19T18:26:58.150Z,0.03
2023-01-19T18:29:29.703Z,0.10
2023-01-19T18:32:01.573Z,0.04
2023-01-19T18:34:33.121Z,0.02
2023-01-19T18:37:04.759Z,0.03
2023-01-19T18:39:36.281Z,-0.02
2023-01-19T18:42:08.137Z,-0.08
2023-01-19T18:44:39.699Z,-0.02
2023-01-19T18:47:11.623Z,0.00
2023-01-19T18:49:43.166Z,0.01
2023-01-19T18:52:15.121Z,0.09
2023-01-19T18:54:46.697Z,0.00
2023-01-19T18:57:18.661Z,0.03
2023-01-19T18:59:50.313Z,-0.08
2023-01-19T19:02:22.520Z,-0.08
2023-01-19T19:04:54.151Z,0.02
2023-01-19T19:07:25.962Z,-0.01
2023-01-19T19:09:57.473Z,0.05
2023-01-19T19:12:29.373Z,0.11
2023-01-19T19:15:00.919Z,0.12
2023-01-19T19:17:32.715Z,0.05
2023-01-19T19:20:04.231Z,0.15
2023-01-19T19:22:35.767Z,0.09
2023-01-19T19:25:07.347Z,0.19
2023-01-19T19:27:39.313Z,0.17
2023-01-19T19:30:11.210Z,0.27
2023-01-19T19:32:43.327Z,0.11
2023-01-19T19:35:18.614Z,0.12
2023-01-19T19:37:50.987Z,0.20
2023-01-19T19:40:22.492Z,0.20
2023-01-19T19:42:55.071Z,0.16
2023-01-19T19:45:27.395Z,0.16
2023-01-19T19:47:59.380Z,0.23
2023-01-19T19:50:30.942Z,0.24
2023-01-19T19:53:02.835Z,0.27
2023-01-19T19:55:34.352Z,0.24
2023-01-19T20:01:21.037Z,0.33
2023-01-19T20:03:52.608Z,0.31
2023-01-19T20:06:24.482Z,0.34
2023-01-19T20:08:56.094Z,0.33
2023-01-19T20:11:28.150Z,0.40
2023-01-19T20:13:59.778Z,0.44
2023-01-19T20:16:31.718Z,0.46
2023-01-19T20:19:03.343Z,0.48
2023-01-19T20:21:35.695Z,0.51
2023-01-19T20:24:07.212Z,0.43
2023-01-19T20:26:39.272Z,0.41
2023-01-19T20:29:11.088Z,0.45
2023-01-19T20:31:43.066Z,0.44
2023-01-19T20:34:14.618Z,0.38
2023-01-19T20:36:49.934Z,0.44
2023-01-19T20:39:21.477Z,0.49
2023-01-19T20:41:53.419Z,0.49
2023-01-19T20:44:24.933Z,0.46
2023-01-19T20:46:56.828Z,0.46
2023-01-19T20:49:28.562Z,0.43
2023-01-19T20:52:00.641Z,0.43
2023-01-19T20:54:32.150Z,0.42
2023-01-19T20:57:03.901Z,0.46
2023-01-19T20:59:37.000Z,0.52
2023-01-19T21:02:12.835Z,0.51
2023-01-19T21:04:44.398Z,-0.84
2023-01-19T21:07:16.220Z,0.49
2023-01-19T21:09:47.760Z,0.46
2023-01-19T21:12:21.722Z,0.47
2023-01-19T21:14:53.237Z,0.43
2023-01-19T21:17:25.161Z,0.53
2023-01-19T21:19:56.724Z,0.54
2023-01-19T21:22:28.564Z,0.58
2023-01-19T21:25:00.064Z,0.65
2023-01-19T21:27:31.673Z,0.63
2023-01-19T21:30:03.309Z,0.65
2023-01-19T21:32:35.136Z,0.71
2023-01-19T21:35:06.650Z,0.69
2023-01-19T21:37:38.160Z,0.66
2023-01-19T21:40:09.723Z,0.68
2023-01-19T21:42:41.711Z,0.63
2023-01-19T21:45:13.483Z,0.71
2023-01-19T21:47:45.594Z,0.67
2023-01-19T21:50:17.197Z,0.76
2023-01-19T21:52:49.075Z,0.70
2023-01-19T21:55:20.595Z,0.70
2023-01-19T21:57:52.394Z,0.70
2023-01-19T22:00:23.971Z,0.77
2023-01-19T22:03:03.693Z,0.80
2023-01-19T22:05:36.954Z,0.75
2023-01-19T22:08:09.793Z,0.82
2023-01-19T22:10:41.284Z,0.89
2023-01-19T22:13:13.117Z,0.82
2023-01-19T22:15:44.602Z,0.86
2023-01-19T22:18:16.414Z,0.83
2023-01-19T22:20:47.901Z,0.88
2023-01-19T22:23:19.735Z,0.94
2023-01-19T22:25:51.275Z,0.86
2023-01-19T22:28:23.122Z,0.85
2023-01-19T22:30:54.732Z,1.00
2023-01-19T22:33:26.635Z,1.00
2023-01-19T22:35:58.125Z,1.07
2023-01-19T22:38:29.867Z,1.09
2023-01-19T22:41:01.427Z,1.00
2023-01-19T22:43:33.216Z,1.00
2023-01-19T22:46:06.633Z,1.01
2023-01-19T22:48:40.507Z,1.05
2023-01-19T22:51:12.018Z,1.00
2023-01-19T22:53:43.800Z,1.04
2023-01-19T22:56:15.311Z,1.05
2023-01-19T22:58:47.203Z,1.03
2023-01-19T23:01:18.803Z,1.09
2023-01-19T23:03:50.607Z,1.10
2023-01-19T23:06:22.156Z,1.11
2023-01-19T23:08:53.968Z,1.05
2023-01-19T23:11:25.513Z,1.03
2023-01-19T23:13:57.523Z,1.08
2023-01-19T23:16:29.035Z,1.02
2023-01-19T23:19:00.893Z,1.01
2023-01-19T23:21:32.476Z,0.93
2023-01-19T23:24:04.381Z,0.89
2023-01-19T23:26:38.748Z,0.92
2023-01-19T23:29:10.279Z,0.96
2023-01-19T23:31:42.212Z,1.02
2023-01-19T23:34:13.909Z,1.07
2023-01-19T23:36:45.948Z,1.04
2023-01-19T23:39:17.466Z,1.10
2023-01-19T23:41:49.465Z,1.14
2023-01-19T23:44:21.035Z,1.12
2023-01-19T23:46:52.860Z,1.18
2023-01-19T23:49:24.367Z,1.11
2023-01-19T23:51:56.248Z,1.10
2023-01-19T23:54:27.764Z,1.07
2023-01-19T23:56:59.584Z,1.09
2023-01-19T23:59:31.091Z,1.16
